Terminal Aerodrome Forecast
Issued by NWS Los Angeles, CA

Home | Current Version | Previous Version | Text Only | Print | Product List | Glossary On
Versions: 1 2 3 4 5 6 7 8 9 10 11 12 13 14 15 16 17 18
578
FTUS46 KLOX 022322
TAFSMX
TAF
KSMX 022322Z 0300/0324 32012KT P6SM SCT250
     FM030300 VRB03KT P6SM OVC006
     FM030600 VRB03KT 5SM BR OVC004
     FM031800 31007KT P6SM BKN008
     FM032000 31012KT P6SM SCT250=

USA.gov is the U.S. government's official web portal to all federal, state and local government web resources and services.